Maurice, LA (70555)

8:44 PM CDT on September 23, 2014 (GMT -0500)
Maurice | Change Station
CLOSE
Current Station
Personal Weather Station
Location: Maurice, LA
Elevation: 33 ft
Nearby Weather Stations

Elev 33 ft 30.11 °N, 92.12 °W | Updated 2 minutes ago

Clear
Clear
63.7 °F
Feels Like 63.7 °F
N
0.0
Wind Variable Wind from SSE

Today
High -- | Low -- °F
--% Chance of Precip.
Yesterday
High -- | Low -- °F
Precip. -- in
6:57 AM 7:03 PM
Waning Crescent, 0% visible
Pressure 30.06 in
Visibility 10.0 miles
Clouds Clear
Dew Point 59 °F
Humidity 85%
Rainfall 0.00 in
Snow Depth Not available.
UV 0 out of 12
Pollen 10.20 out of 12
Air Quality Not available.
Flu Activity Not available.
METAR KIYA 240135Z AUTO 01004KT 10SM CLR 19/16 A3006 RMK AO2 T01910156

More Conditions Fewer Conditions

Pressure 30.06 in
Visibility 10.0 miles
Clouds Clear
Dew Point 59 °F
Humidity 85%
Rainfall 0.00 in
Snow Depth Not available.
UV 0 out of 12
Pollen 10.20 out of 12
Air Quality Not available.
Flu Activity Not available.
METAR KIYA 240135Z AUTO 01004KT 10SM CLR 19/16 A3006 RMK AO2 T01910156

More Conditions Fewer Conditions

10-Day Weather Forecast

Almanac

Astronomy

Sep. 23, 2014 Rise Set
Actual Time 6:57 AM CDT 7:03 PM CDT
Civil Twilight 6:33 AM CDT 7:27 PM CDT
Nautical Twilight 6:05 AM CDT 7:55 PM CDT
Astronomical Twilight 5:37 AM CDT 8:23 PM CDT
Moon 6:22 AM CDT (9/23) 6:44 PM CDT (9/23)
Length of Visible Light 12h 54m
Length of Day
12h 06m
Tomorrow will be 1m 49s shorter.
Waning Crescent, 0% of the Moon is Illuminated
Today
Waning Crescent
Sep 24
New
Oct 1
First Quarter
Oct 8
Full
Oct 15
Last Quarter

Today's Extremes

State Highs State Lows

Community

WunderPhotos

Upload Photos

1,755,844 photos uploaded!

Nearby

Snow Depth

Station Depth Elevation
No new snow has been reported.

Earthquake Activity

City Distance Mag. Time & Date
No recent earthquake activity has been reported nearby.
Minimum magnitude displayed is 2.5.

Coastal Water Temperatures

Place Temperature
Fresh Water Canal Locks, LA 82.0 °F
Amerada Pass, LA 81.0 °F

Nearby Weather Stations